VIAG/AGR METAR and TAF weather

Enter ICAO airport designator
Station Type Date Time Source
VIAG METAR 2019/04/18 22:30 UTC NOAA

VIAG 182230Z VRB01KT 6000 SKC 20/20 Q1009 NOSIG


Station Type Date Time Source
VIAG Decoded METAR 2019/04/18 22:30 UTC NOAA

Agra, India (VIAG) 27-09N 077-58E 169M
Apr 18, 2019 - 06:30 PM EDT / 2019.04.18 2230 UTC
Wind: Variable at 1 MPH (1 KT):0
Visibility: 3 mile(s):0
Sky conditions: clear
Temperature: 68 F (20 C)
Dew Point: 68 F (20 C)
Relative Humidity: 100%
Pressure (altimeter): 29.80 in. Hg (1009 hPa)
ob: VIAG 182230Z VRB01KT 6000 SKC 20/20 Q1009 NOSIG
cycle: 22

Station Type Date Time Source
VIAG TAF 2019/04/18 18:30 UTC NOAA

TAF VIAG 181730Z 1818/1906 VRB02KT 6000 FEW250

Example: see airport list